Clinton Municipal Airport
Wednesday 6:56 PM
Weather Sunny
Temperature 81°
Dew Point 54°
Feels Like 81°
Relative Humidity 39
%
Visibility 10
mi
Pressure 1016.6
mb
Wind Direction SE
Wind Speed 8
mph
Last Hour Precip 0.00
"
KCWI 162356Z AUTO 13007KT 10SM CLR 27/12 A3002 RMK AO2 SLP167 T02720122 10283 20256 56018

Recent Observations

Time Present Weather Temp DP Feels RH% Vsby Pressure Ceiling Direction Speed Gust 1h Precip
6:56PM
VFR
81° 54° 81° 39
%
10
mi
1016.6
mb
None SE 8
mph
0.00"
KCWI 162356Z AUTO 13007KT 10SM CLR 27/12 A3002 RMK AO2 SLP167 T02720122 10283 20256 56018
5:56PM
VFR
81° 52° 80° 37
%
10
mi
1016.9
mb
None Calm 0.00"
KCWI 162256Z AUTO 00000KT 10SM CLR 27/11 A3003 RMK AO2 SLP169 T02720111
4:56PM
VFR
82° 53° 81° 37
%
10
mi
1017.6
mb
None NE 3
mph
0.00"
KCWI 162156Z AUTO 04003KT 10SM CLR 28/12 A3005 RMK AO2 SLP175 T02780117
3:56PM
VFR
82° 53° 81° 37
%
10
mi
1018.6
mb
None SSE 7
mph
0.00"
KCWI 162056Z AUTO 15006KT 10SM CLR 28/12 A3008 RMK AO2 SLP183 T02780117 56014
2:56PM
VFR
81° 53° 80° 38
%
10
mi
1019.0
mb
None NNW 5
mph
0.00"
KCWI 161956Z AUTO 33004KT 10SM CLR 27/12 A3009 RMK AO2 SLP189 T02720117
1:56PM
VFR
80° 53° 80° 39
%
10
mi
1019.3
mb
None VRB 3
mph
0.00"
KCWI 161856Z AUTO VRB03KT 10SM CLR 27/12 A3010 RMK AO2 SLP195 T02670117
12:56PM
VFR
78° 52° 40
%
10
mi
1020.0
mb
None VRB 3
mph
0.00"
KCWI 161756Z AUTO VRB03KT 10SM CLR 26/11 A3012 RMK AO2 SLP198 T02560111 10256 20161 58016
11:56AM
VFR
77° 49° 37
%
10
mi
1020.7
mb
None VRB 6
mph
0.00"
KCWI 161656Z AUTO VRB05KT 10SM CLR 25/09 A3014 RMK AO2 SLP205 T02500094
10:56AM
VFR
75° 47° 37
%
10
mi
1021.0
mb
None SSE 9
mph
0.00"
KCWI 161556Z AUTO 16008KT 10SM CLR 24/08 A3015 RMK AO2 SLP209 T02390083
9:56AM
VFR
72° 45° 38
%
10
mi
1021.7
mb
None ESE 7
mph
0.00"
KCWI 161456Z AUTO 11006KT 10SM CLR 22/07 A3017 RMK AO2 SLP216 T02220072 50001
8:56AM
VFR
68° 44° 42
%
10
mi
1022.0
mb
None ESE 9
mph
0.00"
KCWI 161356Z AUTO 11008KT 10SM CLR 20/07 A3018 RMK AO2 SLP219 T02000067
7:56AM
VFR
65° 44° 47
%
10
mi
1021.7
mb
None E 12
mph
0.00"
KCWI 161256Z AUTO 10010KT 10SM CLR 18/07 A3017 RMK AO2 SLP216 T01830067
6:56AM
VFR
HZ 61° 48° 62
%
5
mi
1021.3
mb
None E 7
mph
0.00"
KCWI 161156Z AUTO 08006KT 5SM HZ CLR 16/09 A3016 RMK AO2 SLP214 T01610089 10183 20122 51015
5:56AM
VFR
56° 47° 72
%
10
mi
1021.0
mb
None ENE 8
mph
0.00"
KCWI 161056Z AUTO 07007KT 10SM CLR 13/08 A3015 RMK AO2 SLP209 T01330083
4:56AM
VFR
55° 47° 74
%
10
mi
1020.3
mb
None ENE 8
mph
0.00"
KCWI 160956Z AUTO 07007KT 10SM CLR 13/08 A3013 RMK AO2 SLP204 T01280083
3:56AM
VFR
56° 48° 75
%
10
mi
1020.0
mb
None ENE 6
mph
0.00"
KCWI 160856Z AUTO 07005KT 10SM CLR 13/09 A3012 RMK AO2 SLP199 T01330089 58001
2:56AM
VFR
59° 48° 67
%
10
mi
1020.0
mb
None E 6
mph
0.00"
KCWI 160756Z AUTO 08005KT 10SM CLR 15/09 A3012 RMK AO2 SLP199 T01500089
1:56AM
VFR
62° 48° 60
%
10
mi
1020.0
mb
None ESE 8
mph
0.00"
KCWI 160656Z AUTO 11007KT 10SM CLR 17/09 A3012 RMK AO2 SLP199 T01670089
12:56AM
VFR
65° 50° 58
%
10
mi
1020.0
mb
None ESE 9
mph
0.00"
KCWI 160556Z AUTO 11008KT 10SM FEW070 18/10 A3012 RMK AO2 SLP198 T01830100 10267 20183 403000133 51008
11:56PM
VFR
68° 53° 59
%
10
mi
1020.0
mb
7500
ft
E 14
mph
0.00"
KCWI 160456Z AUTO 10012KT 10SM BKN075 20/12 A3012 RMK AO2 SLP197 T02000117
Click here to show this page without METARs/TAFs included